Time;durP1;ratioP1;P1;durP2;ratioP2;P2;SDS_P1;SDS_P2;PMS_P1;PMS_P2;Temp;Humidity;BMP_temperature;BMP_pressure;BME280_temperature;BME280_humidity;BME280_pressure;Samples;Min_cycle;Max_cycle;Signal;HPM_P1;HPM_P2
2023/12/13 00:02:25;;;;;;;42.60;18.67;;;;;;;;;;5094261;28;20459;-71
2023/12/13 00:04:51;;;;;;;34.28;18.88;;;;;;;;;;5094079;28;20027;-72
2023/12/13 00:07:18;;;;;;;37.10;19.27;;;;;;;;;;5093899;28;20467;-72
2023/12/13 00:09:44;;;;;;;40.85;18.60;;;;;;;;;;5093459;28;20390;-72
2023/12/13 00:12:10;;;;;;;39.33;18.80;;;;;;;;;;5092308;28;20027;-72
2023/12/13 00:14:36;;;;;;;41.33;19.65;;;;;;;;;;5093689;28;20020;-72
2023/12/13 00:17:03;;;;;;;33.88;18.15;;;;;;;;;;5093969;28;20028;-72
2023/12/13 00:19:29;;;;;;;35.15;18.45;;;;;;;;;;5093679;28;20023;-72
2023/12/13 00:21:55;;;;;;;42.33;18.23;;;;;;;;;;5093821;28;20032;-71
2023/12/13 00:24:21;;;;;;;38.95;19.63;;;;;;;;;;5093886;28;20073;-72
2023/12/13 00:26:49;;;;;;;38.83;18.20;;;;;;;;;;5094976;28;20073;-72
2023/12/13 00:29:15;;;;;;;40.90;19.15;;;;;;;;;;5092857;28;20031;-72
2023/12/13 00:31:41;;;;;;;35.85;18.30;;;;;;;;;;5093167;28;20035;-72
2023/12/13 00:34:07;;;;;;;41.05;18.48;;;;;;;;;;5092978;28;20103;-72
2023/12/13 00:36:33;;;;;;;34.33;18.67;;;;;;;;;;5093185;28;20405;-72
2023/12/13 00:38:59;;;;;;;36.65;17.98;;;;;;;;;;5091379;28;20039;-72
2023/12/13 00:41:25;;;;;;;33.72;18.50;;;;;;;;;;5092654;28;20024;-72
2023/12/13 00:43:51;;;;;;;34.85;18.52;;;;;;;;;;5093038;28;20028;-72
2023/12/13 00:46:22;;;;;;;39.28;19.67;;;;;;;;;;5094367;28;20491;-72
2023/12/13 00:48:48;;;;;;;34.63;18.95;;;;;;;;;;5094911;28;20103;-72
2023/12/13 00:51:21;;;;;;;37.72;18.65;;;;;;;;;;5094234;28;20052;-71
2023/12/13 00:53:47;;;;;;;32.95;18.08;;;;;;;;;;5094654;28;20034;-72
2023/12/13 00:56:13;;;;;;;38.42;19.13;;;;;;;;;;5093296;28;20060;-71
2023/12/13 00:58:39;;;;;;;32.20;17.63;;;;;;;;;;5092833;28;20031;-72
2023/12/13 01:01:06;;;;;;;43.20;18.33;;;;;;;;;;5095098;28;20605;-72
2023/12/13 01:03:32;;;;;;;37.33;18.00;;;;;;;;;;5098528;28;20028;-72
2023/12/13 01:05:58;;;;;;;35.92;17.42;;;;;;;;;;5104171;28;20020;-72
2023/12/13 01:08:24;;;;;;;32.13;16.75;;;;;;;;;;5112305;28;20031;-73
2023/12/13 01:10:50;;;;;;;32.10;15.77;;;;;;;;;;5112516;28;20486;-72
2023/12/13 01:13:16;;;;;;;30.65;16.83;;;;;;;;;;5112479;28;20023;-72
2023/12/13 01:15:42;;;;;;;30.58;15.80;;;;;;;;;;5113046;28;20068;-72
2023/12/13 01:18:07;;;;;;;28.40;15.35;;;;;;;;;;5112831;28;20031;-71
2023/12/13 01:20:34;;;;;;;27.65;14.60;;;;;;;;;;5112154;28;20024;-73
2023/12/13 01:23:00;;;;;;;24.98;15.05;;;;;;;;;;5112525;28;20031;-71
2023/12/13 01:25:26;;;;;;;28.25;14.55;;;;;;;;;;5112794;28;20046;-72
2023/12/13 01:27:57;;;;;;;32.83;14.75;;;;;;;;;;5112999;28;20069;-71
2023/12/13 01:30:23;;;;;;;27.25;14.55;;;;;;;;;;5112483;28;20027;-71
2023/12/13 01:32:49;;;;;;;23.08;13.07;;;;;;;;;;5114600;28;20024;-72
2023/12/13 01:35:15;;;;;;;22.08;12.63;;;;;;;;;;5116173;28;20059;-72
2023/12/13 01:37:41;;;;;;;25.15;13.90;;;;;;;;;;5116944;28;20453;-72
2023/12/13 01:40:08;;;;;;;21.17;12.13;;;;;;;;;;5114394;28;20063;-72
2023/12/13 01:42:34;;;;;;;21.35;12.43;;;;;;;;;;5115841;28;20114;-72
2023/12/13 01:45:00;;;;;;;25.67;12.93;;;;;;;;;;5112760;28;20028;-72
2023/12/13 01:47:26;;;;;;;20.42;12.25;;;;;;;;;;5112173;28;20077;-72
2023/12/13 01:49:52;;;;;;;21.55;11.98;;;;;;;;;;5114105;28;20028;-73
2023/12/13 01:52:18;;;;;;;19.35;11.20;;;;;;;;;;5116759;28;20027;-73
2023/12/13 01:54:44;;;;;;;18.35;10.57;;;;;;;;;;5116289;28;20020;-73
2023/12/13 01:57:10;;;;;;;20.23;10.55;;;;;;;;;;5116435;28;20035;-71
2023/12/13 01:59:38;;;;;;;18.45;10.88;;;;;;;;;;5116252;28;20032;-72
2023/12/13 02:02:04;;;;;;;16.23;9.15;;;;;;;;;;5115805;28;20372;-72
2023/12/13 02:04:30;;;;;;;16.70;8.85;;;;;;;;;;5116107;28;20487;-72
2023/12/13 02:06:56;;;;;;;16.88;8.85;;;;;;;;;;5115933;28;20186;-71
2023/12/13 02:09:23;;;;;;;14.38;8.10;;;;;;;;;;5115634;28;20027;-72
2023/12/13 02:11:49;;;;;;;12.38;7.93;;;;;;;;;;5115919;28;20031;-72
2023/12/13 02:14:15;;;;;;;14.07;7.90;;;;;;;;;;5116046;28;20387;-71
2023/12/13 02:16:41;;;;;;;15.52;7.70;;;;;;;;;;5116239;28;20028;-72
2023/12/13 02:19:08;;;;;;;12.38;7.35;;;;;;;;;;5116228;28;20027;-72
2023/12/13 02:21:34;;;;;;;17.63;7.85;;;;;;;;;;5116498;28;20016;-72
2023/12/13 02:24:09;;;;;;;12.63;6.97;;;;;;;;;;5116331;28;20034;-72
2023/12/13 02:26:39;;;;;;;12.13;7.03;;;;;;;;;;5114814;28;20027;-71
2023/12/13 02:29:05;;;;;;;11.55;7.07;;;;;;;;;;5113438;28;20051;-72
2023/12/13 02:31:31;;;;;;;9.75;6.60;;;;;;;;;;5115380;28;20074;-71
2023/12/13 02:33:57;;;;;;;11.35;6.78;;;;;;;;;;5115533;28;20031;-71
2023/12/13 02:36:23;;;;;;;7.68;6.10;;;;;;;;;;5115694;28;20023;-72
2023/12/13 02:38:50;;;;;;;11.43;6.97;;;;;;;;;;5115549;28;20028;-73
2023/12/13 02:41:16;;;;;;;7.97;5.68;;;;;;;;;;5115685;28;20475;-72
2023/12/13 02:43:42;;;;;;;12.52;6.10;;;;;;;;;;5116205;28;20088;-73
2023/12/13 02:46:08;;;;;;;15.00;6.10;;;;;;;;;;5118396;28;20071;-72
2023/12/13 02:48:34;;;;;;;10.82;6.10;;;;;;;;;;5116097;28;20024;-73
2023/12/13 02:51:00;;;;;;;7.82;5.05;;;;;;;;;;5115444;28;20024;-72
2023/12/13 02:53:26;;;;;;;8.02;4.28;;;;;;;;;;5114997;28;20019;-71
2023/12/13 02:55:52;;;;;;;6.25;4.32;;;;;;;;;;5115636;27;20091;-73
2023/12/13 02:58:18;;;;;;;8.48;4.50;;;;;;;;;;5115606;28;20046;-72
2023/12/13 03:00:44;;;;;;;5.13;3.97;;;;;;;;;;5114872;28;20031;-72
2023/12/13 03:03:10;;;;;;;7.00;4.50;;;;;;;;;;5115027;28;20474;-72
2023/12/13 03:05:36;;;;;;;7.85;4.75;;;;;;;;;;5115077;27;20063;-72
2023/12/13 03:08:02;;;;;;;5.28;4.15;;;;;;;;;;5114831;28;20028;-72
2023/12/13 03:10:28;;;;;;;6.70;4.55;;;;;;;;;;5114782;28;20547;-72
2023/12/13 03:12:55;;;;;;;8.68;4.70;;;;;;;;;;5114734;28;20051;-71
2023/12/13 03:15:21;;;;;;;7.88;4.72;;;;;;;;;;5115517;27;20039;-73
2023/12/13 03:17:47;;;;;;;7.10;4.13;;;;;;;;;;5119349;28;20028;-73
2023/12/13 03:20:13;;;;;;;7.88;5.15;;;;;;;;;;5120897;27;20028;-72
2023/12/13 03:22:39;;;;;;;8.93;4.63;;;;;;;;;;5118102;28;20429;-72
2023/12/13 03:25:05;;;;;;;7.43;4.85;;;;;;;;;;5116387;28;20026;-73
2023/12/13 03:27:31;;;;;;;7.95;4.75;;;;;;;;;;5114512;28;20028;-72
2023/12/13 03:29:57;;;;;;;9.45;5.03;;;;;;;;;;5114406;28;20031;-72
2023/12/13 03:32:23;;;;;;;8.98;5.20;;;;;;;;;;5114738;27;20049;-73
2023/12/13 03:34:49;;;;;;;9.98;5.57;;;;;;;;;;5115299;28;20467;-71
2023/12/13 03:37:15;;;;;;;8.48;4.93;;;;;;;;;;5114330;28;20019;-72
2023/12/13 03:39:41;;;;;;;7.65;4.90;;;;;;;;;;5114249;27;20024;-73
2023/12/13 03:42:07;;;;;;;7.68;5.28;;;;;;;;;;5114866;28;20052;-72
2023/12/13 03:44:33;;;;;;;10.45;5.47;;;;;;;;;;5113717;28;20026;-73
2023/12/13 03:46:59;;;;;;;8.57;5.10;;;;;;;;;;5115432;28;20031;-72
2023/12/13 03:49:25;;;;;;;8.13;5.40;;;;;;;;;;5114256;28;20050;-72
2023/12/13 03:51:51;;;;;;;8.60;5.72;;;;;;;;;;5112434;28;20023;-72
2023/12/13 03:54:17;;;;;;;8.45;5.57;;;;;;;;;;5121725;28;20051;-72
2023/12/13 03:56:43;;;;;;;6.90;5.20;;;;;;;;;;5113446;28;20118;-72
2023/12/13 03:59:09;;;;;;;9.73;5.65;;;;;;;;;;5120182;28;20118;-75
2023/12/13 04:01:35;;;;;;;7.18;5.35;;;;;;;;;;5117816;28;20019;-75
2023/12/13 04:04:01;;;;;;;11.68;5.82;;;;;;;;;;5123800;28;20536;-74
2023/12/13 04:06:28;;;;;;;8.60;5.65;;;;;;;;;;5121942;28;20046;-74
2023/12/13 04:08:55;;;;;;;8.35;5.90;;;;;;;;;;5116778;28;20062;-73
2023/12/13 04:11:21;;;;;;;9.20;6.05;;;;;;;;;;5113702;28;20039;-73
2023/12/13 04:13:47;;;;;;;7.70;5.22;;;;;;;;;;5113112;28;20451;-73
2023/12/13 04:16:13;;;;;;;7.88;5.30;;;;;;;;;;5113614;28;20023;-74
2023/12/13 04:18:39;;;;;;;6.55;5.00;;;;;;;;;;5114572;28;20028;-73
2023/12/13 04:21:05;;;;;;;8.35;5.10;;;;;;;;;;5117712;28;20073;-72
2023/12/13 04:23:31;;;;;;;9.57;5.55;;;;;;;;;;5122188;28;20031;-72
2023/12/13 04:25:57;;;;;;;8.43;5.45;;;;;;;;;;5110047;28;20020;-71
2023/12/13 04:28:24;;;;;;;8.57;5.63;;;;;;;;;;5110126;28;20038;-73
2023/12/13 04:30:49;;;;;;;8.63;5.13;;;;;;;;;;5110972;28;20119;-72
2023/12/13 04:33:18;;;;;;;12.13;6.05;;;;;;;;;;5092548;28;20107;-72
2023/12/13 04:35:45;;;;;;;11.57;7.25;;;;;;;;;;5092913;28;20073;-73
2023/12/13 04:38:11;;;;;;;9.00;5.45;;;;;;;;;;5092775;28;20198;-72
2023/12/13 04:40:37;;;;;;;8.20;5.72;;;;;;;;;;5093731;28;20032;-73
2023/12/13 04:43:03;;;;;;;10.57;6.10;;;;;;;;;;5092869;28;20035;-73
2023/12/13 04:45:29;;;;;;;11.82;5.43;;;;;;;;;;5093294;28;20287;-72
2023/12/13 04:47:55;;;;;;;9.32;5.35;;;;;;;;;;5091752;28;20081;-73
2023/12/13 04:50:22;;;;;;;9.20;5.43;;;;;;;;;;5093242;28;20024;-73
2023/12/13 04:52:49;;;;;;;8.73;5.15;;;;;;;;;;5093090;28;20020;-71
2023/12/13 04:55:15;;;;;;;7.60;5.13;;;;;;;;;;5092555;28;20012;-71
2023/12/13 04:57:41;;;;;;;9.55;5.40;;;;;;;;;;5092612;28;20035;-72
2023/12/13 05:00:07;;;;;;;7.65;5.20;;;;;;;;;;5092482;28;20047;-72
2023/12/13 05:02:33;;;;;;;13.35;6.40;;;;;;;;;;5092592;28;20035;-71
2023/12/13 05:04:59;;;;;;;8.73;5.55;;;;;;;;;;5095001;28;20024;-72
2023/12/13 05:07:27;;;;;;;10.70;5.78;;;;;;;;;;5101315;28;20035;-73
2023/12/13 05:09:54;;;;;;;10.18;5.38;;;;;;;;;;5103858;28;20417;-74
2023/12/13 05:12:20;;;;;;;9.05;5.65;;;;;;;;;;5107855;28;20470;-73
2023/12/13 05:14:46;;;;;;;10.90;5.80;;;;;;;;;;5100010;28;20053;-74
2023/12/13 05:17:12;;;;;;;9.30;5.55;;;;;;;;;;5100966;28;20032;-74
2023/12/13 05:19:38;;;;;;;12.52;5.68;;;;;;;;;;5106804;28;20159;-75
2023/12/13 05:22:04;;;;;;;11.48;6.75;;;;;;;;;;5113864;28;20039;-73
2023/12/13 05:24:30;;;;;;;9.55;5.90;;;;;;;;;;5108179;28;20058;-73
2023/12/13 05:26:56;;;;;;;12.23;6.03;;;;;;;;;;5107936;28;20478;-72
2023/12/13 05:29:23;;;;;;;8.02;5.93;;;;;;;;;;5093423;28;20028;-73
2023/12/13 05:31:49;;;;;;;10.43;5.78;;;;;;;;;;5098992;28;20062;-73
2023/12/13 05:34:15;;;;;;;10.48;6.53;;;;;;;;;;5112412;28;20020;-74
2023/12/13 05:36:41;;;;;;;11.38;6.68;;;;;;;;;;5114857;28;20069;-77
2023/12/13 05:39:07;;;;;;;9.98;6.00;;;;;;;;;;5102685;28;20097;-74
2023/12/13 05:41:33;;;;;;;12.95;6.80;;;;;;;;;;5092563;28;20099;-73
2023/12/13 05:43:59;;;;;;;11.98;6.65;;;;;;;;;;5091924;28;20024;-75
2023/12/13 05:46:26;;;;;;;11.30;6.32;;;;;;;;;;5092231;28;20051;-73
2023/12/13 05:48:52;;;;;;;13.32;6.50;;;;;;;;;;5091952;28;20027;-72
2023/12/13 05:51:18;;;;;;;12.05;6.32;;;;;;;;;;5093252;28;20073;-73
2023/12/13 05:53:44;;;;;;;13.35;6.82;;;;;;;;;;5092330;28;20025;-72
2023/12/13 05:56:11;;;;;;;13.00;7.07;;;;;;;;;;5092311;28;20107;-72
2023/12/13 05:58:37;;;;;;;13.68;6.95;;;;;;;;;;5092373;28;20032;-73
2023/12/13 06:01:03;;;;;;;10.43;7.07;;;;;;;;;;5094997;28;20020;-75
2023/12/13 06:03:30;;;;;;;12.07;7.20;;;;;;;;;;5094252;28;20031;-73
2023/12/13 06:05:56;;;;;;;17.27;7.72;;;;;;;;;;5091691;28;20456;-72
2023/12/13 06:08:22;;;;;;;11.57;7.18;;;;;;;;;;5091688;28;20024;-73
2023/12/13 06:10:48;;;;;;;15.05;8.05;;;;;;;;;;5093634;28;20399;-75
2023/12/13 06:13:17;;;;;;;15.82;8.10;;;;;;;;;;5092263;28;20028;-73
2023/12/13 06:15:44;;;;;;;15.85;7.78;;;;;;;;;;5093730;28;20443;-72
2023/12/13 06:18:10;;;;;;;15.30;7.15;;;;;;;;;;5092200;28;20449;-73
2023/12/13 06:20:36;;;;;;;18.08;7.28;;;;;;;;;;5100810;28;20088;-77
2023/12/13 06:23:02;;;;;;;14.35;8.32;;;;;;;;;;5106865;28;20031;-72
2023/12/13 06:25:28;;;;;;;12.55;8.02;;;;;;;;;;5095079;28;20031;-72
2023/12/13 06:27:54;;;;;;;17.48;8.60;;;;;;;;;;5096709;28;20023;-72
2023/12/13 06:30:20;;;;;;;14.40;8.05;;;;;;;;;;5110314;28;20391;-71
2023/12/13 06:32:47;;;;;;;15.23;8.80;;;;;;;;;;5095853;28;20016;-74
2023/12/13 06:35:14;;;;;;;20.20;9.18;;;;;;;;;;5102836;28;20056;-73
2023/12/13 06:37:40;;;;;;;17.80;8.57;;;;;;;;;;5112858;28;20136;-70
2023/12/13 06:40:06;;;;;;;15.57;8.60;;;;;;;;;;5104289;28;20036;-75
2023/12/13 06:42:32;;;;;;;18.15;8.82;;;;;;;;;;5098566;28;20031;-72
2023/12/13 06:44:58;;;;;;;20.13;8.70;;;;;;;;;;5107335;28;20103;-71
2023/12/13 06:47:24;;;;;;;15.68;8.55;;;;;;;;;;5114080;28;20024;-73
2023/12/13 06:49:50;;;;;;;22.60;9.70;;;;;;;;;;5116864;28;21212;-73
2023/12/13 06:52:16;;;;;;;19.35;9.57;;;;;;;;;;5108670;28;20024;-71
2023/12/13 06:54:42;;;;;;;19.50;8.75;;;;;;;;;;5115288;28;20027;-72
2023/12/13 06:57:09;;;;;;;18.13;10.07;;;;;;;;;;5109084;28;20048;-76
2023/12/13 06:59:35;;;;;;;18.73;9.35;;;;;;;;;;5105433;28;20358;-76
2023/12/13 07:02:01;;;;;;;21.80;9.63;;;;;;;;;;5110720;28;20020;-74
2023/12/13 07:04:27;;;;;;;14.75;7.90;;;;;;;;;;5099075;28;20425;-73
2023/12/13 07:06:54;;;;;;;18.90;8.90;;;;;;;;;;5101146;28;20023;-72
2023/12/13 07:09:20;;;;;;;20.17;9.63;;;;;;;;;;5112229;28;20491;-73
2023/12/13 07:11:46;;;;;;;18.52;9.30;;;;;;;;;;5106132;28;20102;-73
2023/12/13 07:14:14;;;;;;;17.95;8.77;;;;;;;;;;5106313;28;20086;-73
2023/12/13 07:16:40;;;;;;;15.55;8.32;;;;;;;;;;5102646;28;20095;-71
2023/12/13 07:19:06;;;;;;;15.93;8.25;;;;;;;;;;5094351;28;20024;-73
2023/12/13 07:21:32;;;;;;;13.52;7.90;;;;;;;;;;5095806;28;20077;-73
2023/12/13 07:23:58;;;;;;;20.38;9.25;;;;;;;;;;5094581;28;20097;-73
2023/12/13 07:26:24;;;;;;;17.48;9.77;;;;;;;;;;5094618;28;20055;-74
2023/12/13 07:28:50;;;;;;;18.50;10.43;;;;;;;;;;5104956;28;20359;-73
2023/12/13 07:31:16;;;;;;;17.42;9.50;;;;;;;;;;5114800;28;20027;-72
2023/12/13 07:33:42;;;;;;;17.95;9.70;;;;;;;;;;5113776;28;20391;-72
2023/12/13 07:36:08;;;;;;;15.70;8.60;;;;;;;;;;5114397;28;20028;-76
2023/12/13 07:38:34;;;;;;;16.58;8.43;;;;;;;;;;5114510;28;20028;-74
2023/12/13 07:41:00;;;;;;;15.23;8.27;;;;;;;;;;5114514;27;20046;-74
2023/12/13 07:43:26;;;;;;;14.52;8.20;;;;;;;;;;5114589;28;20051;-73
2023/12/13 07:45:54;;;;;;;16.45;9.05;;;;;;;;;;5114740;28;20459;-73
2023/12/13 07:48:23;;;;;;;16.48;9.32;;;;;;;;;;5113666;28;20395;-73
2023/12/13 07:50:49;;;;;;;14.07;8.00;;;;;;;;;;5114430;28;20016;-74
2023/12/13 07:53:15;;;;;;;16.02;8.50;;;;;;;;;;5114001;28;20160;-73
2023/12/13 07:55:41;;;;;;;15.70;9.30;;;;;;;;;;5113746;28;20026;-73
2023/12/13 07:58:08;;;;;;;19.98;9.43;;;;;;;;;;5114203;28;20032;-73
2023/12/13 08:00:34;;;;;;;15.75;8.52;;;;;;;;;;5115359;28;20032;-74
2023/12/13 08:03:00;;;;;;;23.92;8.48;;;;;;;;;;5117521;28;20160;-74
2023/12/13 08:05:26;;;;;;;16.27;8.32;;;;;;;;;;5118166;28;20028;-73
2023/12/13 08:07:52;;;;;;;13.27;7.85;;;;;;;;;;5120224;28;20107;-72
2023/12/13 08:10:18;;;;;;;20.17;8.50;;;;;;;;;;5114761;28;20024;-73
2023/12/13 08:12:45;;;;;;;15.10;7.90;;;;;;;;;;5112994;28;20073;-72
2023/12/13 08:15:11;;;;;;;15.43;8.80;;;;;;;;;;5113186;28;20024;-72
2023/12/13 08:17:38;;;;;;;17.40;9.05;;;;;;;;;;5113858;28;20027;-74
2023/12/13 08:20:04;;;;;;;14.65;8.50;;;;;;;;;;5113915;28;20046;-72
2023/12/13 08:22:30;;;;;;;17.88;8.60;;;;;;;;;;5114689;28;20023;-74
2023/12/13 08:24:56;;;;;;;15.32;8.23;;;;;;;;;;5113651;28;20046;-73
2023/12/13 08:27:22;;;;;;;16.73;8.65;;;;;;;;;;5113729;28;20110;-74
2023/12/13 08:29:48;;;;;;;19.05;9.40;;;;;;;;;;5113056;28;20463;-73
2023/12/13 08:32:17;;;;;;;16.67;8.75;;;;;;;;;;5113648;27;20079;-73
2023/12/13 08:34:44;;;;;;;15.98;8.27;;;;;;;;;;5114737;28;20027;-72
2023/12/13 08:37:10;;;;;;;16.52;8.82;;;;;;;;;;5113915;28;20104;-72
2023/12/13 08:39:36;;;;;;;14.85;8.85;;;;;;;;;;5113141;28;20019;-73
2023/12/13 08:42:03;;;;;;;18.02;8.55;;;;;;;;;;5112831;28;20035;-73
2023/12/13 08:44:29;;;;;;;19.58;10.68;;;;;;;;;;5113089;28;20043;-72
2023/12/13 08:46:55;;;;;;;17.77;8.85;;;;;;;;;;5113125;28;20423;-71
2023/12/13 08:49:22;;;;;;;17.80;8.88;;;;;;;;;;5111651;28;20028;-72
2023/12/13 08:51:47;;;;;;;21.60;9.90;;;;;;;;;;5112713;28;20020;-74
2023/12/13 08:54:13;;;;;;;15.75;9.82;;;;;;;;;;5113652;28;20627;-73
2023/12/13 08:56:40;;;;;;;17.60;9.02;;;;;;;;;;5112976;28;20020;-72
2023/12/13 08:59:06;;;;;;;17.95;9.43;;;;;;;;;;5112622;28;20054;-73
2023/12/13 09:01:32;;;;;;;20.13;10.48;;;;;;;;;;5103035;28;20035;-72
2023/12/13 09:03:59;;;;;;;19.80;10.13;;;;;;;;;;5092118;28;20102;-75
2023/12/13 09:06:25;;;;;;;24.23;10.55;;;;;;;;;;5100301;28;20087;-75
2023/12/13 09:08:51;;;;;;;21.80;10.73;;;;;;;;;;5113726;28;20024;-73
2023/12/13 09:11:17;;;;;;;20.92;10.60;;;;;;;;;;5113232;28;20493;-74
2023/12/13 09:13:43;;;;;;;22.80;10.85;;;;;;;;;;5112373;28;20070;-72
2023/12/13 09:16:09;;;;;;;19.80;10.88;;;;;;;;;;5112394;28;20459;-72
2023/12/13 09:18:35;;;;;;;19.35;10.63;;;;;;;;;;5111607;28;20160;-72
2023/12/13 09:21:01;;;;;;;25.02;11.55;;;;;;;;;;5112041;28;20027;-71
2023/12/13 09:23:27;;;;;;;21.52;10.57;;;;;;;;;;5112150;28;20023;-73
2023/12/13 09:25:54;;;;;;;20.80;10.43;;;;;;;;;;5112437;28;20530;-74
2023/12/13 09:28:20;;;;;;;20.90;10.60;;;;;;;;;;5111267;28;20026;-73
2023/12/13 09:30:46;;;;;;;17.90;10.05;;;;;;;;;;5101653;28;20123;-72
2023/12/13 09:33:13;;;;;;;23.33;10.40;;;;;;;;;;5091372;28;20118;-73
2023/12/13 09:35:39;;;;;;;20.63;10.05;;;;;;;;;;5111457;28;20020;-72
2023/12/13 09:38:05;;;;;;;21.42;10.50;;;;;;;;;;5111725;28;20114;-72
2023/12/13 09:40:32;;;;;;;22.58;9.98;;;;;;;;;;5091789;28;20145;-73
2023/12/13 09:43:00;;;;;;;24.13;10.80;;;;;;;;;;5091260;28;20073;-72
2023/12/13 09:45:26;;;;;;;24.95;10.52;;;;;;;;;;5108974;28;20508;-73
2023/12/13 09:47:53;;;;;;;26.67;10.45;;;;;;;;;;5111922;28;20112;-71
2023/12/13 09:50:19;;;;;;;19.02;9.82;;;;;;;;;;5111064;28;20116;-72
2023/12/13 09:52:47;;;;;;;23.35;11.70;;;;;;;;;;5111736;28;20024;-72
2023/12/13 09:55:13;;;;;;;18.38;10.10;;;;;;;;;;5111634;28;20076;-74
2023/12/13 09:57:39;;;;;;;19.08;9.55;;;;;;;;;;5112024;28;20439;-73
2023/12/13 10:00:05;;;;;;;16.83;9.15;;;;;;;;;;5110782;28;20062;-73
2023/12/13 10:02:32;;;;;;;19.75;9.38;;;;;;;;;;5111316;28;20496;-73
2023/12/13 10:05:01;;;;;;;17.05;8.48;;;;;;;;;;5111494;28;20040;-71
2023/12/13 10:07:28;;;;;;;19.58;8.68;;;;;;;;;;5111693;28;20546;-72
2023/12/13 10:09:55;;;;;;;16.60;8.63;;;;;;;;;;5111226;28;20059;-73
2023/12/13 10:12:21;;;;;;;17.25;8.68;;;;;;;;;;5115869;28;20081;-72
2023/12/13 10:14:47;;;;;;;19.27;8.20;;;;;;;;;;5117391;28;20023;-72
2023/12/13 10:17:13;;;;;;;18.40;9.00;;;;;;;;;;5121175;28;20408;-72
2023/12/13 10:19:40;;;;;;;20.00;8.10;;;;;;;;;;5122627;28;20024;-72
2023/12/13 10:22:06;;;;;;;15.32;7.40;;;;;;;;;;5116827;28;20494;-73
2023/12/13 10:24:32;;;;;;;16.45;7.25;;;;;;;;;;5115342;28;20023;-73
2023/12/13 10:26:58;;;;;;;14.57;8.10;;;;;;;;;;5114223;28;20378;-71
2023/12/13 10:29:25;;;;;;;14.02;7.43;;;;;;;;;;5114673;28;20027;-73
2023/12/13 10:31:51;;;;;;;14.80;7.55;;;;;;;;;;5115097;28;20381;-73
2023/12/13 10:34:17;;;;;;;15.93;7.90;;;;;;;;;;5114967;28;20112;-72
2023/12/13 10:36:43;;;;;;;13.27;6.68;;;;;;;;;;5115308;28;20047;-75
2023/12/13 10:39:11;;;;;;;18.55;7.68;;;;;;;;;;5114441;28;20390;-74
2023/12/13 10:41:37;;;;;;;20.08;11.02;;;;;;;;;;5115240;28;20085;-79
2023/12/13 10:44:04;;;;;;;12.27;6.45;;;;;;;;;;5115215;28;20162;-73
2023/12/13 10:46:35;;;;;;;14.30;6.90;;;;;;;;;;5115234;28;20110;-74
2023/12/13 10:49:06;;;;;;;14.98;7.75;;;;;;;;;;5112729;28;20065;-75
2023/12/13 10:51:33;;;;;;;14.68;7.07;;;;;;;;;;5115378;28;20398;-74
2023/12/13 10:54:00;;;;;;;14.10;6.68;;;;;;;;;;5114621;28;20389;-73
2023/12/13 10:56:26;;;;;;;11.98;6.53;;;;;;;;;;5114721;28;20051;-74
2023/12/13 10:58:53;;;;;;;15.45;7.20;;;;;;;;;;5114530;28;20067;-73
2023/12/13 11:01:19;;;;;;;14.65;7.95;;;;;;;;;;5114929;28;20031;-74
2023/12/13 11:03:52;;;;;;;12.98;7.25;;;;;;;;;;5114913;28;20034;-75
2023/12/13 11:06:18;;;;;;;15.57;6.90;;;;;;;;;;5115264;28;20515;-75
2023/12/13 11:08:44;;;;;;;11.38;6.60;;;;;;;;;;5114769;28;20023;-72
2023/12/13 11:11:16;;;;;;;13.40;6.32;;;;;;;;;;5114877;28;20023;-71
2023/12/13 11:13:49;;;;;;;11.13;6.53;;;;;;;;;;5112948;28;20027;-75
2023/12/13 11:16:16;;;;;;;11.95;6.32;;;;;;;;;;5113532;28;20020;-74
2023/12/13 11:18:42;;;;;;;12.93;6.72;;;;;;;;;;5112970;28;20514;-74
2023/12/13 11:21:08;;;;;;;9.77;5.38;;;;;;;;;;5113443;28;20035;-74
2023/12/13 11:23:35;;;;;;;12.32;5.57;;;;;;;;;;5114228;28;20030;-74
2023/12/13 11:26:01;;;;;;;9.98;5.63;;;;;;;;;;5112982;28;20036;-73
2023/12/13 11:28:27;;;;;;;8.27;4.70;;;;;;;;;;5113065;28;20023;-73
2023/12/13 11:30:57;;;;;;;10.50;5.40;;;;;;;;;;5113327;28;20096;-72
2023/12/13 11:33:23;;;;;;;9.23;5.20;;;;;;;;;;5113211;28;20019;-73
2023/12/13 11:35:52;;;;;;;8.80;5.20;;;;;;;;;;5112999;28;20478;-73
2023/12/13 11:38:18;;;;;;;8.23;4.65;;;;;;;;;;5112775;28;20027;-76
2023/12/13 11:40:45;;;;;;;9.82;5.05;;;;;;;;;;5113330;28;20020;-74
2023/12/13 11:43:12;;;;;;;9.90;5.03;;;;;;;;;;5112992;28;20076;-74
2023/12/13 11:45:47;;;;;;;9.15;5.07;;;;;;;;;;5113388;28;20495;-74
2023/12/13 11:48:13;;;;;;;10.52;4.50;;;;;;;;;;5113701;28;20066;-73
2023/12/13 11:50:39;;;;;;;10.10;4.40;;;;;;;;;;5114365;28;20425;-72
2023/12/13 11:53:06;;;;;;;9.85;4.72;;;;;;;;;;5114403;28;20026;-71
2023/12/13 11:55:32;;;;;;;9.80;5.32;;;;;;;;;;5112975;28;20552;-71
2023/12/13 11:58:00;;;;;;;8.18;4.55;;;;;;;;;;5112853;28;20083;-73
2023/12/13 12:00:26;;;;;;;11.65;3.97;;;;;;;;;;5112730;28;20059;-76
2023/12/13 12:02:54;;;;;;;6.97;4.15;;;;;;;;;;5112693;28;20147;-73
2023/12/13 12:05:20;;;;;;;7.63;4.13;;;;;;;;;;5112084;28;20020;-72
2023/12/13 12:07:55;;;;;;;9.25;4.22;;;;;;;;;;5112482;28;20019;-72
2023/12/13 12:10:21;;;;;;;11.90;4.55;;;;;;;;;;5112173;28;20023;-73
2023/12/13 12:12:49;;;;;;;9.07;4.50;;;;;;;;;;5112707;28;20051;-72
2023/12/13 12:15:16;;;;;;;9.02;4.35;;;;;;;;;;5114560;28;20024;-73
2023/12/13 12:17:42;;;;;;;13.10;6.72;;;;;;;;;;5113256;28;20031;-73
2023/12/13 12:20:08;;;;;;;10.98;4.95;;;;;;;;;;5111403;28;20027;-74
2023/12/13 12:22:38;;;;;;;8.30;4.18;;;;;;;;;;5112198;28;20561;-74
2023/12/13 12:25:05;;;;;;;11.95;5.25;;;;;;;;;;5112556;28;20039;-72
2023/12/13 12:27:31;;;;;;;8.35;4.40;;;;;;;;;;5112548;28;20030;-71
2023/12/13 12:29:57;;;;;;;8.65;4.45;;;;;;;;;;5111646;28;20015;-72
2023/12/13 12:32:23;;;;;;;6.97;4.07;;;;;;;;;;5112037;28;20372;-72
2023/12/13 12:34:49;;;;;;;9.73;4.78;;;;;;;;;;5111648;28;20027;-73
2023/12/13 12:37:16;;;;;;;8.55;4.47;;;;;;;;;;5112331;28;20023;-73
2023/12/13 12:39:42;;;;;;;9.85;4.55;;;;;;;;;;5111603;28;20023;-73
2023/12/13 12:42:08;;;;;;;8.77;4.20;;;;;;;;;;5111758;28;20037;-73
2023/12/13 12:44:34;;;;;;;10.27;4.47;;;;;;;;;;5111652;28;20039;-75
2023/12/13 12:47:00;;;;;;;7.63;3.85;;;;;;;;;;5111561;28;20031;-74
2023/12/13 12:49:26;;;;;;;7.90;3.60;;;;;;;;;;5110792;28;20027;-74
2023/12/13 12:51:52;;;;;;;10.77;4.60;;;;;;;;;;5111633;28;20047;-72
2023/12/13 12:54:18;;;;;;;6.03;3.75;;;;;;;;;;5111698;28;20070;-72
2023/12/13 12:56:44;;;;;;;8.60;4.30;;;;;;;;;;5111657;28;20024;-72
2023/12/13 12:59:14;;;;;;;6.53;3.88;;;;;;;;;;5110827;28;20039;-73
2023/12/13 13:01:42;;;;;;;6.28;3.88;;;;;;;;;;5111943;28;20563;-72
2023/12/13 13:04:12;;;;;;;8.20;4.13;;;;;;;;;;5111400;28;20111;-72
2023/12/13 13:06:38;;;;;;;9.35;4.15;;;;;;;;;;5111582;28;20091;-75
2023/12/13 13:09:06;;;;;;;7.72;3.90;;;;;;;;;;5109916;28;20443;-75
2023/12/13 13:11:32;;;;;;;8.10;3.90;;;;;;;;;;5109975;28;20016;-73
2023/12/13 13:13:58;;;;;;;13.30;5.60;;;;;;;;;;5111778;28;20028;-73
2023/12/13 13:16:24;;;;;;;7.90;3.83;;;;;;;;;;5110574;28;20095;-76
2023/12/13 13:18:49;;;;;;;9.85;4.68;;;;;;;;;;5112010;28;20355;-76
2023/12/13 13:21:15;;;;;;;8.45;4.25;;;;;;;;;;5112599;28;20039;-72
2023/12/13 13:23:42;;;;;;;8.65;4.47;;;;;;;;;;5112033;28;20019;-73
2023/12/13 13:26:10;;;;;;;6.50;3.92;;;;;;;;;;5112303;28;20037;-72
2023/12/13 13:28:36;;;;;;;8.45;3.80;;;;;;;;;;5111651;28;20028;-73
2023/12/13 13:31:04;;;;;;;12.73;5.88;;;;;;;;;;5111766;28;20024;-73
2023/12/13 13:33:30;;;;;;;6.82;3.28;;;;;;;;;;5112424;28;20039;-74
2023/12/13 13:35:56;;;;;;;8.77;4.85;;;;;;;;;;5113668;28;20032;-76
2023/12/13 13:38:22;;;;;;;6.30;3.38;;;;;;;;;;5101653;28;20032;-72
2023/12/13 13:40:48;;;;;;;7.68;3.95;;;;;;;;;;5110111;28;20035;-72
2023/12/13 13:43:15;;;;;;;13.13;4.10;;;;;;;;;;5113295;28;20032;-74
2023/12/13 13:45:41;;;;;;;6.40;3.42;;;;;;;;;;5112076;28;20051;-73
2023/12/13 13:48:07;;;;;;;5.35;3.42;;;;;;;;;;5115727;28;20494;-74
2023/12/13 13:50:33;;;;;;;6.93;3.30;;;;;;;;;;5093872;28;20024;-74
2023/12/13 13:53:00;;;;;;;7.28;3.20;;;;;;;;;;5096384;28;20459;-73
2023/12/13 13:55:26;;;;;;;7.28;3.22;;;;;;;;;;5108044;28;20026;-74
2023/12/13 13:57:52;;;;;;;8.00;3.50;;;;;;;;;;5099277;28;20035;-73
2023/12/13 14:00:20;;;;;;;7.25;3.65;;;;;;;;;;5097470;28;20036;-73
2023/12/13 14:02:46;;;;;;;9.10;3.60;;;;;;;;;;5105184;28;20453;-74
2023/12/13 14:05:12;;;;;;;7.95;3.67;;;;;;;;;;5109203;28;20078;-73
2023/12/13 14:07:38;;;;;;;8.52;3.30;;;;;;;;;;5106348;28;20051;-73
2023/12/13 14:10:05;;;;;;;7.07;3.90;;;;;;;;;;5100693;28;20027;-74
2023/12/13 14:12:31;;;;;;;7.45;4.15;;;;;;;;;;5109472;28;20111;-73
2023/12/13 14:14:57;;;;;;;7.50;3.45;;;;;;;;;;5106265;28;20024;-73
2023/12/13 14:17:26;;;;;;;7.03;3.67;;;;;;;;;;5107228;28;20026;-72
2023/12/13 14:19:52;;;;;;;6.60;3.65;;;;;;;;;;5109694;28;20031;-73
2023/12/13 14:22:18;;;;;;;8.02;4.88;;;;;;;;;;5109217;28;20028;-73
2023/12/13 14:24:44;;;;;;;11.27;5.35;;;;;;;;;;5099589;28;20020;-73
2023/12/13 14:27:10;;;;;;;6.47;3.92;;;;;;;;;;5096467;28;20032;-75